Milford, Utah Weather observations

Data are for observation ending at time listed.
 Day   Time    Ave.   Ave.  Ave.  Vector   Max.   Stn.    Total    Solar   Ave.  
  of    of     Air    Rel.  Wind   Wind    Wind   Baro.  Precip.   Rad.    Soil  
Year   Day     Temp.  Hum.  Speed  Dir.    Gust   Pres.                    Temp. 
2014   (MST)    F      %     mph   deg.    mph     mb.     in.     W/m2     F   
------------------------------------------------------------------------------
 107    1:00   37.7    44    1.9    39      3.6   843.4    0.00       0    54.6
 107    1:10   36.1    47    1.3   193      5.5   843.5    0.00       0    54.4
 107    1:20   35.1    51    1.1   223      4.5   843.5    0.00       0    54.6
 107    1:30   35.8    50    1.0   240      2.0   843.4    0.00       0    54.5
 107    1:40   36.7    50    0.3   255      1.3   843.3    0.00       0    54.5
 107    1:50   37.8    49    1.5   259      3.4   843.3    0.00       0    54.5
 107    2:00   37.9    48    2.0   260      3.1   843.4    0.00       0    54.4
 107    2:10   36.8    50    1.7   295      2.7   843.3    0.00       0    54.4
 107    2:20   35.9    52    1.2    42      2.3   843.2    0.00       0    54.4
 107    2:30   34.9    55    1.4    34      2.8   843.2    0.00       0    54.4
 107    2:40   34.5    56    0.4     2      1.8   843.2    0.00       0    54.3
 107    2:50   34.3    56    0.3   268      1.8   843.2    0.00       0    54.3
 107    3:00   34.0    56    0.8   217      1.7   843.2    0.00       0    54.3
 107    3:10   33.8    57    0.5   277      1.8   843.3    0.00       0    54.2
 107    3:20   34.8    55    0.6   284      1.6   843.2    0.00       0    54.2
 107    3:30   33.5    53    1.7   176      5.6   843.2    0.00       0    54.2
 107    3:40   30.9    56    2.2   206      4.2   843.2    0.00       0    54.2
 107    3:50   32.6    56    1.3   257      2.4   843.0    0.00       0    54.1
 107    4:00   33.2    55    0.7   175      1.5   843.0    0.00       0    54.1
 107    4:10   32.9    54    0.5   278      1.2   842.9    0.00       0    54.0
 107    4:20   32.6    56    0.3   220      1.5   842.9    0.00       0    54.0
 107    4:30   32.2    57    0.3   268      1.3   842.9    0.00       0    54.0
 107    4:40   32.6    58    0.2   316      1.2   842.9    0.00       0    53.9
 107    4:50   32.5    58    0.0     0      0.0   843.0    0.00       0    53.9
 107    5:00   32.3    58    0.0     0      0.0   843.0    0.00       0    53.9
 107    5:10   32.6    60    0.1   322      1.2   843.0    0.00       0    53.8
 107    5:20   32.7    60    0.1   187      1.9   843.1    0.00       0    53.8
 107    5:30   31.6    61    1.1   196      2.3   843.2    0.00       0    53.7
 107    5:40   30.8    62    0.9   182      2.0   843.3    0.00       0    53.7
 107    5:50   30.6    62    0.0     0      0.0   843.3    0.00       0    53.9
 107    6:00   31.1    63    0.0     0      0.0   843.3    0.00       3    53.6
 107    6:10   31.5    62    0.1   348      1.3   843.4    0.00       7    53.6
 107    6:20   32.0    62    0.0     0      0.0   843.4    0.00      27    53.5
 107    6:30   33.3    57    0.3   298      1.8   843.6    0.00      60    53.4
 107    6:40   35.7    50    1.1    32      2.8   843.8    0.00      94    53.5
 107    6:50   35.0    55    2.1    47      2.8   844.0    0.00     131    53.3
 107    7:00   35.8    54    1.6    50      2.7   844.2    0.00     167    53.3
 107    7:10   38.3    51    0.8    72      1.8   844.4    0.00     194    53.2
 107    7:20   40.5    46    0.6   149      1.7   844.6    0.00     223    53.2
 107    7:30   42.7    41    0.2   150      1.1   844.8    0.00     252    53.1
 107    7:40   45.2    36    0.8    34      1.8   845.1    0.00     286    53.3
 107    7:50   47.5    33    0.3   101      1.5   845.3    0.00     302    53.1
 107    8:00   47.8    33    0.8   129      2.0   845.5    0.00     329    53.0
 107    8:10   48.5    33    0.7   131      2.6   845.7    0.00     357    53.0
 107    8:20   47.9    34    2.1   143      3.2   845.9    0.00     385    53.0
 107    8:30   49.6    32    1.1   105      2.7   846.0    0.00     416    53.1
 107    8:40   52.0    29    1.0    91      2.1   846.2    0.00     439    52.9
 107    8:50   52.2    28    1.7    54      3.4   846.3    0.00     469    52.9
 107    9:00   53.4    28    1.2    39      3.7   846.4    0.00     493    53.0
 107    9:10   54.0    27    1.2    47      4.5   846.5    0.00     542    52.9
 107    9:20   54.8    27    1.9   170      4.2   846.6    0.00     534    52.8
 107    9:30   55.8    27    1.4   138      3.1   846.8    0.00     550    52.9
 107    9:40   56.5    25    1.9    67      3.6   846.9    0.00     607    52.8
 107    9:50   57.0    25    2.2    42      4.1   847.0    0.00     616    52.8
 107   10:00   58.9    24    1.0    75      2.7   847.1    0.00     643    52.8
 107   10:10   59.6    24    2.0     6      4.4   847.1    0.00     670    52.8
 107   10:20   60.3    24    1.5   210      3.4   847.2    0.00     680    52.7
 107   10:30   62.0    23    1.0    66      3.0   847.2    0.00     703    52.7
 107   10:40   62.8    23    2.1   139      5.7   847.3    0.00     721    52.7
 107   10:50   62.6    23    2.4   146      4.7   847.3    0.00     736    52.7
 107   11:00   63.9    23    2.3   168      6.3   847.2    0.00     751    52.6
 107   11:10   64.2    23    2.7   140      5.3   847.1    0.00     767    52.6
 107   11:20   65.6    23    2.4   182      7.1   846.9    0.00     778    52.6
 107   11:30   66.0    23    3.3   185      6.7   846.8    0.00     788    52.6
 107   11:40   66.6    23    4.2   175      8.8   846.7    0.00     799    52.7
 107   11:50   66.7    22    5.0   169     10.6   846.5    0.00     806    52.7
 107   12:00   67.3    22    4.2   171      9.8   846.4    0.00     817    52.7
 107   12:10   68.2    21    4.5   180      9.8   846.2    0.00     821    52.7
 107   12:20   68.1    20    5.2   168     10.2   846.2    0.00     819    52.7
 107   12:30   69.0    20    5.7   154     12.9   846.2    0.00     813    52.7
 107   12:40   69.6    19    6.8   159     13.4   846.2    0.00     818    52.8
 107   12:50   69.2    19    7.2   166     13.8   846.2    0.00     804    52.8
 107   13:00   70.8    18    6.6   173     16.5   846.2    0.00     817    52.9
 107   13:10   70.9    17    5.6   169     11.8   846.1    0.00     803    52.9
 107   13:20   72.2    17    3.8   197     11.5   846.2    0.00     797    53.0
 107   13:30   72.6    16    5.9   190     12.3   846.3    0.00     775    53.1
 107   13:40   71.9    17    5.5   179     11.0   846.3    0.00     788    53.0
 107   13:50   72.0    16    4.8   182     12.6   846.2    0.00     774    53.1
 107   14:00   72.6    16    6.0   177     12.5   846.1    0.00     737    53.2
 107   14:10   73.8    16    4.2   202      8.3   846.1    0.00     742    53.3
 107   14:20   74.0    15    5.7   179     10.4   846.0    0.00     747    53.3
 107   14:30   73.7    16    4.8   186      9.6   846.0    0.00     728    53.4
 107   14:40   74.2    15    4.4   191      8.0   845.9    0.00     699    53.5
 107   14:50   73.9    15    7.6   171     15.5   845.7    0.00     692    53.5
 107   15:00   73.6    14    5.8   161     11.3   845.5    0.00     674    53.6
 107   15:10   74.5    14    5.9   151     18.9   845.2    0.00     653    53.7
 107   15:20   74.8    14    6.3   142     13.4   845.0    0.00     629    53.8
 107   15:30   74.6    14    5.1   169     10.1   844.8    0.00     597    53.9
 107   15:40   74.6    14    7.5   173     16.5   844.7    0.00     575    54.0
 107   15:50   74.7    14    6.6   166     10.8   844.5    0.00     538    54.1
 107   16:00   74.7    14    7.0   164     13.8   844.3    0.00     536    54.2
 107   16:10   75.8    14    5.2   180     11.8   844.2    0.00     494    54.3
 107   16:20   75.3    14    5.6   186     10.7   844.1    0.00     459    54.4
 107   16:30   75.6    14    6.1   193     11.8   844.1    0.00     446    54.4
 107   16:40   75.0    13    6.5   191     13.4   844.1    0.00     422    54.5
 107   16:50   74.9    13    6.1   194     11.8   844.0    0.00     393    54.7
 107   17:00   74.7    13    8.6   183     16.7   843.8    0.00     363    54.7
 107   17:10   74.5    13    7.2   189     13.2   843.8    0.00     314    54.8
 107   17:20   74.2    13    7.6   184     13.2   843.6    0.00     293    54.9
 107   17:30   74.0    13    7.4   186     14.0   843.5    0.00     273    55.0
 107   17:40   73.7    13    8.0   186     17.6   843.4    0.00     196    55.1
 107   17:50   72.9    13    7.5   191     14.1   843.3    0.00      85    55.2
 107   18:00   72.7    13    7.5   189     14.1   843.2    0.00      87    55.3
 107   18:10   72.1    14    6.3   188     12.7   843.1    0.00     112    55.4
 107   18:20   71.6    14    5.7   198     12.6   843.1    0.00      28    55.5
 107   18:30   71.1    14    5.4   194     11.4   843.0    0.00      23    55.6
 107   18:40   70.4    14    5.1   196     11.7   842.9    0.00      19    55.7
 107   18:50   69.7    14    5.4   198      9.6   842.9    0.00      17    55.7
 107   19:00   69.0    14    4.7   197      9.0   843.0    0.00      12    55.9
 107   19:10   68.1    15    3.8   201      8.6   842.9    0.00       4    55.9
 107   19:20   66.7    16    3.2   201      6.2   842.9    0.00       0    56.0
 107   19:30   65.6    16    3.1   197      6.9   842.8    0.00       0    56.0
 107   19:40   65.3    16    3.6   200      6.4   842.8    0.00       0    56.2
 107   19:50   63.6    18    2.2   192      4.2   842.9    0.00       0    56.2
 107   20:00   62.0    19    2.1   183      3.5   842.9    0.00       0    56.2
 107   20:10   60.0    22    2.2   175      3.9   842.8    0.00       0    56.4
 107   20:20   57.3    28    3.0   154      4.5   842.8    0.00       0    56.4
 107   20:30   54.1    34    2.4   187      4.5   842.8    0.00       0    56.5
 107   20:40   53.9    32    2.0   212      4.2   842.8    0.00       0    56.5
 107   20:50   54.6    30    2.1   216      3.9   842.7    0.00       0    56.6
 107   21:00   54.8    30    3.4   194      6.4   842.7    0.00       0    56.6
 107   21:10   54.0    31    2.8   200      5.0   842.7    0.00       0    56.7
 107   21:20   53.4    31    2.4   193      4.4   842.8    0.00       0    56.7
 107   21:30   53.3    32    2.6   200      4.3   842.8    0.00       0    56.7
 107   21:40   54.7    29    2.8   199      5.0   842.8    0.00       0    56.7
 107   21:50   55.4    27    2.8   200      6.1   842.8    0.00       0    56.7
 107   22:00   55.2    27    3.1   197      5.6   842.7    0.00       0    56.7
 107   22:10   55.0    27    3.1   192      5.3   842.7    0.00       0    56.8
 107   22:20   55.9    25    3.5   192      6.4   842.7    0.00       0    56.8
 107   22:30   57.0    24    3.5   195      5.8   842.8    0.00       0    56.8
 107   22:40   56.6    24    2.5   206      4.7   842.8    0.00       0    56.9
 107   22:50   56.9    24    2.2   211      4.7   842.8    0.00       0    56.9
 107   23:00   57.7    23    2.2   213      4.4   842.7    0.00       0    57.0
 107   23:10   58.3    23    2.8   204      5.6   842.8    0.00       0    56.9
 107   23:20   58.3    23    2.7   221      4.7   842.9    0.00       0    56.9
 107   23:30   57.5    23    2.1   225      4.8   843.0    0.00       0    57.0
 107   23:40   56.1    24    2.4   234      4.7   843.1    0.00       0    57.0
 107   23:50   55.4    25    2.4   233      4.9   843.2    0.00       0    57.0
 108    0:00   54.5    26    2.2   226      5.6   843.2    0.00       0    56.9
 108    0:10   53.4    28    1.8   216      4.0   843.2    0.00       0    57.0
 108    0:20   51.9    29    2.1   202      3.9   843.2    0.00       0    57.0
 108    0:30   51.5    30    1.8   220      3.4   843.1    0.00       0    57.0
 108    0:40   52.5    28    2.4   198      4.1   843.0    0.00       0    56.9
 108    0:50   53.9    26    1.9   198      3.1   843.0    0.00       0    56.9

Return to Milford, Utah graphs page.


Western Regional Climate Center,wrcc@dri.edu